Time;durP1;ratioP1;P1;durP2;ratioP2;P2;SDS_P1;SDS_P2;PMS_P1;PMS_P2;Temp;Humidity;BMP_temperature;BMP_pressure;BME280_temperature;BME280_humidity;BME280_pressure;Samples;Min_cycle;Max_cycle;Signal;HPM_P1;HPM_P2
2023/10/23 00:00:20;;;;;;;5.13;3.20;;;9.80;78.90;;;;;;4989468;28;20060;-81
2023/10/23 00:02:47;;;;;;;4.43;2.47;;;9.80;78.90;;;;;;5022226;28;20102;-82
2023/10/23 00:05:14;;;;;;;5.03;3.13;;;9.80;79.00;;;;;;4972120;28;20262;-81
2023/10/23 00:07:41;;;;;;;4.75;2.20;;;9.70;79.00;;;;;;4972817;28;20144;-81
2023/10/23 00:10:10;;;;;;;4.05;2.03;;;9.70;79.00;;;;;;4989181;28;20061;-81
2023/10/23 00:12:39;;;;;;;4.30;2.25;;;9.70;79.00;;;;;;4989695;28;20526;-81
2023/10/23 00:15:07;;;;;;;3.93;1.80;;;9.70;78.90;;;;;;5021893;28;20055;-81
2023/10/23 00:17:34;;;;;;;4.25;1.80;;;9.70;78.90;;;;;;4990790;28;20270;-82
2023/10/23 00:20:02;;;;;;;4.95;2.65;;;9.70;78.70;;;;;;5006116;28;20058;-81
2023/10/23 00:22:29;;;;;;;3.20;1.42;;;9.70;78.70;;;;;;5004278;28;20113;-81
2023/10/23 00:24:56;;;;;;;7.07;2.33;;;9.70;78.60;;;;;;5022010;28;20118;-81
2023/10/23 00:27:23;;;;;;;5.63;3.20;;;9.60;78.50;;;;;;4989005;28;20060;-81
2023/10/23 00:29:52;;;;;;;5.90;3.15;;;9.60;78.50;;;;;;4973437;28;20262;-82
2023/10/23 00:32:19;;;;;;;4.50;1.70;;;9.60;78.50;;;;;;4989458;28;20101;-82
2023/10/23 00:34:46;;;;;;;3.85;1.83;;;9.60;78.60;;;;;;4968857;28;20135;-82
2023/10/23 00:37:13;;;;;;;4.07;2.08;;;9.60;78.60;;;;;;4996403;28;20057;-81
2023/10/23 00:39:40;;;;;;;5.40;2.70;;;9.60;78.60;;;;;;4971618;28;20053;-81
2023/10/23 00:42:07;;;;;;;3.75;2.10;;;9.50;78.50;;;;;;5021585;28;20338;-81
2023/10/23 00:44:35;;;;;;;3.13;1.40;;;9.50;78.50;;;;;;4988598;28;20061;-81
2023/10/23 00:47:04;;;;;;;5.40;2.30;;;9.50;78.50;;;;;;5021748;28;20110;-81
2023/10/23 00:49:31;;;;;;;4.80;3.03;;;9.50;78.40;;;;;;4988884;28;20061;-81
2023/10/23 00:51:59;;;;;;;6.83;3.27;;;9.50;78.40;;;;;;5005437;28;20830;-81
2023/10/23 00:54:27;;;;;;;5.38;2.80;;;9.50;78.40;;;;;;5021152;28;20247;-81
2023/10/23 00:56:55;;;;;;;5.45;2.83;;;9.40;78.50;;;;;;4971584;28;20059;-81
2023/10/23 00:59:23;;;;;;;4.97;2.30;;;9.40;78.70;;;;;;4972333;28;20137;-81
2023/10/23 01:01:50;;;;;;;6.88;3.20;;;9.40;78.90;;;;;;4972337;28;20046;-82
2023/10/23 01:04:19;;;;;;;5.70;3.70;;;9.40;78.90;;;;;;4971939;28;20047;-81
2023/10/23 01:06:46;;;;;;;6.53;3.90;;;9.40;78.90;;;;;;4972104;28;20766;-81
2023/10/23 01:09:13;;;;;;;6.72;3.60;;;9.40;79.00;;;;;;4972215;28;20583;-81
2023/10/23 01:11:40;;;;;;;4.40;2.67;;;9.40;79.10;;;;;;5021356;28;20047;-81
2023/10/23 01:14:08;;;;;;;4.85;2.70;;;9.30;79.20;;;;;;4971954;28;20083;-81
2023/10/23 01:16:35;;;;;;;5.43;2.63;;;9.20;79.20;;;;;;5020353;28;20535;-81
2023/10/23 01:19:04;;;;;;;4.07;2.38;;;9.20;79.30;;;;;;4988257;28;20269;-81
2023/10/23 01:21:33;;;;;;;4.35;2.08;;;9.20;79.20;;;;;;4971384;28;20050;-81
2023/10/23 01:24:06;;;;;;;4.13;2.35;;;9.20;79.00;;;;;;4971704;28;20050;-81
2023/10/23 01:26:34;;;;;;;4.13;2.47;;;9.20;79.00;;;;;;4971763;28;20051;-82
2023/10/23 01:29:01;;;;;;;5.17;2.30;;;9.20;79.00;;;;;;4972339;28;20101;-82
2023/10/23 01:31:29;;;;;;;4.00;2.10;;;9.20;79.00;;;;;;4971873;28;20333;-81
2023/10/23 01:33:56;;;;;;;4.47;1.90;;;9.10;79.00;;;;;;4970882;28;20043;-81
2023/10/23 01:36:23;;;;;;;3.95;2.10;;;9.10;79.00;;;;;;4971366;28;20050;-81
2023/10/23 01:38:50;;;;;;;5.15;2.55;;;9.20;79.00;;;;;;5020975;28;20051;-81
2023/10/23 01:41:17;;;;;;;5.10;2.50;;;9.10;78.80;;;;;;5004253;28;20465;-81
2023/10/23 01:43:46;;;;;;;4.88;2.05;;;9.10;78.70;;;;;;4988069;28;20649;-82
2023/10/23 01:46:13;;;;;;;3.30;1.75;;;9.00;78.80;;;;;;4971711;28;20051;-81
2023/10/23 01:48:40;;;;;;;3.75;1.83;;;9.00;78.70;;;;;;5004166;28;20054;-81
2023/10/23 01:51:07;;;;;;;3.72;1.70;;;9.00;78.70;;;;;;4967619;28;20517;-81
2023/10/23 01:53:34;;;;;;;3.43;1.70;;;9.00;78.70;;;;;;4984655;28;20131;-81
2023/10/23 01:56:07;;;;;;;3.10;1.50;;;9.00;78.70;;;;;;4971707;28;21020;-81
2023/10/23 01:58:34;;;;;;;3.00;1.30;;;9.00;78.40;;;;;;4988441;28;20083;-81
2023/10/23 02:01:02;;;;;;;2.28;0.70;;;9.00;78.20;;;;;;4972280;28;20055;-81
2023/10/23 02:03:30;;;;;;;4.18;1.00;;;8.90;78.10;;;;;;4974856;28;20043;-81
2023/10/23 02:05:58;;;;;;;2.60;0.80;;;8.90;78.20;;;;;;5006980;28;20078;-81
2023/10/23 02:08:25;;;;;;;2.50;1.00;;;8.90;78.30;;;;;;4973968;28;20255;-81
2023/10/23 02:10:52;;;;;;;2.45;0.75;;;8.80;78.40;;;;;;5023989;28;20483;-81
2023/10/23 02:13:20;;;;;;;2.60;1.05;;;8.80;78.40;;;;;;4974993;28;20125;-81
2023/10/23 02:15:47;;;;;;;2.80;1.20;;;8.80;78.40;;;;;;4974567;28;20051;-80
2023/10/23 02:18:15;;;;;;;3.27;1.00;;;8.80;78.30;;;;;;5023986;28;20050;-80
2023/10/23 02:20:42;;;;;;;3.10;1.10;;;8.80;78.30;;;;;;4975117;28;20789;-81
2023/10/23 02:23:09;;;;;;;3.42;1.25;;;8.80;78.30;;;;;;4974684;28;20412;-81
2023/10/23 02:25:36;;;;;;;5.28;1.40;;;8.80;78.20;;;;;;4973865;28;20055;-81
2023/10/23 02:28:04;;;;;;;6.32;1.50;;;8.80;78.20;;;;;;4974740;28;20794;-81
2023/10/23 02:30:31;;;;;;;3.53;1.67;;;8.80;78.10;;;;;;4974432;28;20146;-81
2023/10/23 02:32:59;;;;;;;4.32;1.40;;;8.80;77.90;;;;;;4974630;28;20263;-81
2023/10/23 02:35:27;;;;;;;3.85;1.60;;;8.70;77.60;;;;;;5023638;28;20059;-81
2023/10/23 02:37:54;;;;;;;4.05;1.80;;;8.60;77.60;;;;;;5006748;28;20820;-81
2023/10/23 02:40:22;;;;;;;3.95;1.90;;;8.60;77.70;;;;;;4974418;28;20054;-81
2023/10/23 02:42:49;;;;;;;3.87;1.80;;;8.60;77.90;;;;;;4974540;28;20047;-81
2023/10/23 02:45:16;;;;;;;4.55;1.85;;;8.60;77.90;;;;;;4973675;28;20361;-81
2023/10/23 02:47:44;;;;;;;3.95;1.70;;;8.60;78.00;;;;;;4990964;28;20193;-81
2023/10/23 02:50:12;;;;;;;3.92;1.80;;;8.50;77.90;;;;;;4990824;28;20055;-81
2023/10/23 02:52:40;;;;;;;4.88;2.05;;;8.50;78.00;;;;;;4974424;28;20066;-80
2023/10/23 02:55:08;;;;;;;4.10;2.20;;;8.50;78.00;;;;;;4973890;28;20662;-80
2023/10/23 02:57:35;;;;;;;3.92;2.13;;;8.50;78.00;;;;;;4989898;28;20255;-81
2023/10/23 03:00:05;;;;;;;8.63;1.65;;;8.40;78.20;;;;;;4974607;28;20081;-80
2023/10/23 03:02:33;;;;;;;3.55;0.93;;;8.40;78.20;;;;;;5021913;28;20055;-81
2023/10/23 03:05:00;;;;;;;4.00;1.70;;;8.30;78.00;;;;;;4989044;28;20059;-80
2023/10/23 03:07:27;;;;;;;4.70;2.33;;;8.30;78.20;;;;;;4974129;28;20520;-80
2023/10/23 03:09:55;;;;;;;4.28;2.25;;;8.20;78.20;;;;;;5023444;28;20397;-81
2023/10/23 03:12:22;;;;;;;4.85;2.28;;;8.20;78.30;;;;;;4972903;28;20092;-80
2023/10/23 03:14:49;;;;;;;4.88;1.73;;;8.10;78.50;;;;;;4973862;28;20059;-81
2023/10/23 03:17:16;;;;;;;3.53;1.80;;;8.10;78.60;;;;;;4973484;28;20058;-81
2023/10/23 03:19:44;;;;;;;3.77;1.90;;;8.10;78.70;;;;;;4971746;28;20059;-81
2023/10/23 03:22:11;;;;;;;4.70;2.40;;;8.10;78.70;;;;;;4972244;28;20286;-80
2023/10/23 03:24:38;;;;;;;4.55;1.90;;;8.10;78.50;;;;;;4971938;28;20061;-81
2023/10/23 03:27:06;;;;;;;3.10;1.50;;;8.10;78.60;;;;;;4972067;28;20057;-80
2023/10/23 03:29:33;;;;;;;3.50;1.20;;;8.10;78.60;;;;;;5021397;28;20096;-81
2023/10/23 03:32:00;;;;;;;2.97;1.30;;;8.10;78.50;;;;;;4990076;28;20046;-81
2023/10/23 03:34:28;;;;;;;3.92;1.50;;;8.10;78.50;;;;;;4989587;28;20283;-81
2023/10/23 03:36:55;;;;;;;2.90;1.20;;;8.10;78.40;;;;;;4973163;28;20054;-80
2023/10/23 03:39:22;;;;;;;2.80;1.40;;;8.10;78.40;;;;;;4972351;28;20079;-81
2023/10/23 03:41:49;;;;;;;2.75;1.10;;;8.10;78.20;;;;;;4973923;28;20166;-80
2023/10/23 03:44:17;;;;;;;2.90;1.30;;;8.10;77.80;;;;;;5022270;28;20066;-81
2023/10/23 03:46:45;;;;;;;2.65;0.93;;;8.00;77.90;;;;;;4973209;28;20261;-80
2023/10/23 03:49:12;;;;;;;3.40;1.40;;;8.00;77.80;;;;;;5021974;28;20051;-80
2023/10/23 03:51:39;;;;;;;3.75;1.60;;;8.00;77.70;;;;;;4973456;28;20071;-80
2023/10/23 03:54:06;;;;;;;4.13;2.13;;;8.00;77.80;;;;;;4972910;28;20513;-80
2023/10/23 03:56:34;;;;;;;3.57;1.60;;;8.00;78.00;;;;;;4972367;28;20535;-81
2023/10/23 03:59:02;;;;;;;3.33;1.30;;;7.90;78.10;;;;;;4973247;28;20279;-81
2023/10/23 04:01:31;;;;;;;3.20;1.50;;;7.90;78.20;;;;;;4989297;28;20525;-80
2023/10/23 04:03:58;;;;;;;4.30;1.80;;;7.90;78.10;;;;;;4989265;28;20436;-81
2023/10/23 04:06:25;;;;;;;3.60;1.70;;;8.00;78.20;;;;;;5022248;28;20061;-80
2023/10/23 04:08:52;;;;;;;5.03;2.47;;;7.90;78.10;;;;;;4973104;28;20071;-80
2023/10/23 04:11:19;;;;;;;3.90;2.00;;;7.90;78.20;;;;;;4989444;28;20247;-81
2023/10/23 04:13:46;;;;;;;4.25;1.70;;;7.90;78.30;;;;;;4971767;28;20055;-80
2023/10/23 04:16:15;;;;;;;4.07;1.80;;;7.90;78.40;;;;;;4972796;28;20077;-80
2023/10/23 04:18:45;;;;;;;3.05;1.27;;;7.90;78.50;;;;;;5021540;28;20110;-80
2023/10/23 04:21:13;;;;;;;3.67;1.60;;;7.80;78.40;;;;;;5022109;28;20050;-80
2023/10/23 04:23:41;;;;;;;3.80;1.60;;;7.80;78.20;;;;;;5022138;28;20293;-80
2023/10/23 04:26:08;;;;;;;5.25;1.80;;;7.80;78.40;;;;;;5004823;28;20055;-80
2023/10/23 04:28:37;;;;;;;5.22;2.00;;;7.70;78.40;;;;;;5021411;28;20142;-80
2023/10/23 04:31:04;;;;;;;4.72;2.28;;;7.70;78.40;;;;;;4971619;28;20062;-81
2023/10/23 04:33:33;;;;;;;4.87;2.40;;;7.60;78.20;;;;;;4988805;28;20054;-80
2023/10/23 04:36:01;;;;;;;3.90;1.95;;;7.60;78.30;;;;;;4988576;28;20255;-80
2023/10/23 04:38:29;;;;;;;4.20;1.73;;;7.50;78.50;;;;;;4972408;28;20055;-80
2023/10/23 04:40:56;;;;;;;3.83;1.80;;;7.50;78.60;;;;;;4988645;28;20054;-80
2023/10/23 04:43:24;;;;;;;5.28;1.98;;;7.60;78.60;;;;;;4988262;28;20061;-80
2023/10/23 04:45:55;;;;;;;6.50;2.50;;;7.50;78.70;;;;;;4972760;28;20556;-81
2023/10/23 04:48:22;;;;;;;5.30;2.42;;;7.50;78.60;;;;;;4972213;28;20255;-80
2023/10/23 04:50:49;;;;;;;4.20;2.00;;;7.50;78.70;;;;;;5001904;28;20048;-80
2023/10/23 04:53:19;;;;;;;4.90;2.40;;;7.40;78.80;;;;;;4968676;28;20111;-80
2023/10/23 04:55:46;;;;;;;4.32;2.08;;;7.40;79.00;;;;;;4986559;28;20050;-80
2023/10/23 04:58:13;;;;;;;5.83;2.30;;;7.50;79.10;;;;;;4988571;28;20046;-80
2023/10/23 05:00:40;;;;;;;4.03;2.13;;;7.50;79.10;;;;;;5020942;28;20326;-81
2023/10/23 05:03:08;;;;;;;4.35;2.40;;;7.50;79.10;;;;;;4988632;28;20065;-80
2023/10/23 05:05:35;;;;;;;4.32;2.10;;;7.50;79.10;;;;;;4988404;28;20121;-80
2023/10/23 05:08:04;;;;;;;7.72;2.13;;;7.50;79.10;;;;;;5019821;28;20055;-80
2023/10/23 05:10:33;;;;;;;6.67;2.07;;;7.40;79.10;;;;;;4988574;28;20047;-80
2023/10/23 05:13:02;;;;;;;4.90;2.13;;;7.50;79.10;;;;;;4988313;28;20278;-80
2023/10/23 05:15:31;;;;;;;8.70;2.10;;;7.40;79.10;;;;;;5004817;28;20043;-80
2023/10/23 05:17:58;;;;;;;6.10;2.03;;;7.40;79.00;;;;;;4987814;28;20059;-80
2023/10/23 05:20:25;;;;;;;4.47;1.45;;;7.40;78.90;;;;;;4998917;28;20473;-80
2023/10/23 05:22:52;;;;;;;2.83;1.30;;;7.40;78.80;;;;;;5024636;28;20070;-80
2023/10/23 05:25:19;;;;;;;3.97;1.83;;;7.40;78.70;;;;;;4998790;28;20281;-80
2023/10/23 05:27:47;;;;;;;3.63;1.65;;;7.30;78.80;;;;;;5026698;28;20057;-80
2023/10/23 05:30:14;;;;;;;4.05;2.00;;;7.30;79.00;;;;;;5008105;28;20617;-80
2023/10/23 05:32:42;;;;;;;4.80;2.20;;;7.30;79.00;;;;;;4971691;28;20165;-80
2023/10/23 05:35:11;;;;;;;4.27;2.50;;;7.30;78.90;;;;;;4987686;28;20250;-79
2023/10/23 05:37:38;;;;;;;13.63;1.90;;;7.20;78.70;;;;;;5021027;28;20287;-80
2023/10/23 05:40:07;;;;;;;5.72;2.22;;;7.20;78.80;;;;;;5020669;28;21018;-80
2023/10/23 05:42:34;;;;;;;4.97;1.90;;;7.20;78.70;;;;;;4988844;28;20085;-80
2023/10/23 05:45:03;;;;;;;3.58;1.80;;;7.20;78.80;;;;;;5020936;28;20142;-80
2023/10/23 05:47:31;;;;;;;3.43;1.70;;;7.20;78.70;;;;;;4987517;28;20066;-80
2023/10/23 05:49:58;;;;;;;3.67;1.90;;;7.20;78.60;;;;;;4971498;28;20259;-80
2023/10/23 05:52:25;;;;;;;4.25;1.85;;;7.20;78.60;;;;;;4989550;28;20137;-79
2023/10/23 05:54:52;;;;;;;4.07;2.08;;;7.20;78.70;;;;;;5019675;28;20065;-80
2023/10/23 05:57:19;;;;;;;4.03;2.00;;;7.20;78.70;;;;;;4972980;28;20133;-80
2023/10/23 05:59:46;;;;;;;4.20;2.00;;;7.10;78.70;;;;;;4973954;28;20165;-80
2023/10/23 06:02:15;;;;;;;4.50;2.00;;;7.20;78.70;;;;;;5021541;28;20290;-80
2023/10/23 06:04:43;;;;;;;4.07;2.10;;;7.10;78.80;;;;;;4993599;28;20058;-80
2023/10/23 06:07:13;;;;;;;5.80;1.50;;;7.10;78.80;;;;;;4993637;28;20074;-80
2023/10/23 06:09:42;;;;;;;4.70;1.30;;;7.10;78.70;;;;;;5025496;28;20130;-80
2023/10/23 06:12:11;;;;;;;5.10;1.70;;;7.10;78.50;;;;;;4987016;28;20061;-80
2023/10/23 06:14:38;;;;;;;4.35;1.80;;;7.00;78.30;;;;;;4998392;28;20313;-79
2023/10/23 06:17:05;;;;;;;4.35;1.98;;;7.00;78.30;;;;;;4999033;28;20536;-79
2023/10/23 06:19:33;;;;;;;4.80;2.00;;;6.90;78.40;;;;;;4996987;28;20093;-80
2023/10/23 06:22:01;;;;;;;3.58;1.58;;;6.90;78.60;;;;;;5018777;28;20058;-80
2023/10/23 06:24:28;;;;;;;4.50;2.10;;;6.90;78.80;;;;;;5019114;28;20828;-80
2023/10/23 06:26:55;;;;;;;4.03;2.00;;;6.90;79.00;;;;;;4987524;28;20259;-80
2023/10/23 06:29:23;;;;;;;3.13;1.50;;;6.90;79.00;;;;;;4985756;28;20066;-80
2023/10/23 06:31:50;;;;;;;4.90;1.90;;;6.90;79.00;;;;;;4984932;28;20062;-80
2023/10/23 06:34:17;;;;;;;4.57;1.90;;;6.90;79.10;;;;;;5014649;28;20051;-80
2023/10/23 06:36:46;;;;;;;3.13;1.40;;;6.90;78.90;;;;;;5006210;28;20088;-79
2023/10/23 06:39:13;;;;;;;3.00;1.20;;;6.90;78.90;;;;;;4998578;28;20287;-80
2023/10/23 06:41:40;;;;;;;3.35;1.52;;;6.90;79.00;;;;;;4986659;28;20117;-80
2023/10/23 06:44:07;;;;;;;4.35;1.40;;;6.80;79.20;;;;;;5021793;28;20900;-80
2023/10/23 06:46:34;;;;;;;4.95;1.65;;;6.80;79.30;;;;;;4974399;28;20055;-80
2023/10/23 06:49:01;;;;;;;4.13;1.77;;;6.80;79.40;;;;;;4990124;28;20126;-80
2023/10/23 06:51:28;;;;;;;4.05;1.73;;;6.70;79.40;;;;;;4999868;28;20278;-79
2023/10/23 06:53:57;;;;;;;4.57;1.77;;;6.70;79.60;;;;;;4993889;28;20055;-79
2023/10/23 06:56:24;;;;;;;4.43;2.20;;;6.70;79.70;;;;;;4992885;28;20055;-79
2023/10/23 06:58:51;;;;;;;4.53;2.00;;;6.60;79.80;;;;;;4993145;28;20050;-80
2023/10/23 07:01:19;;;;;;;9.47;2.20;;;6.70;80.00;;;;;;4988733;28;20143;-80
2023/10/23 07:03:45;;;;;;;6.95;1.70;;;6.70;80.00;;;;;;5023777;28;20359;-80
2023/10/23 07:06:13;;;;;;;8.43;1.90;;;6.70;80.00;;;;;;5022186;28;21030;-80
2023/10/23 07:08:40;;;;;;;3.67;1.90;;;6.70;79.90;;;;;;4971859;28;20489;-79
2023/10/23 07:11:17;;;;;;;5.18;1.70;;;6.70;79.90;;;;;;5021477;28;20138;-79
2023/10/23 07:13:44;;;;;;;3.33;1.60;;;6.70;79.90;;;;;;5020740;28;20091;-80
2023/10/23 07:16:12;;;;;;;3.28;1.60;;;6.70;80.10;;;;;;4992196;28;20377;-80
2023/10/23 07:18:39;;;;;;;3.60;1.60;;;6.70;80.20;;;;;;5019794;28;20086;-80
2023/10/23 07:21:06;;;;;;;3.53;1.73;;;6.70;80.20;;;;;;5001810;28;20057;-80
2023/10/23 07:23:33;;;;;;;3.10;1.70;;;6.70;80.30;;;;;;5025747;28;20604;-80
2023/10/23 07:26:02;;;;;;;3.40;1.90;;;6.70;80.40;;;;;;4982363;28;20051;-80
2023/10/23 07:28:30;;;;;;;4.28;2.13;;;6.70;80.50;;;;;;5003214;28;21154;-80
2023/10/23 07:30:57;;;;;;;3.72;2.15;;;6.70;80.70;;;;;;4988287;28;20059;-80
2023/10/23 07:33:24;;;;;;;4.25;2.40;;;6.70;80.70;;;;;;5022200;28;20053;-80
2023/10/23 07:36:03;;;;;;;4.38;2.53;;;6.80;80.80;;;;;;5021299;28;20057;-81
2023/10/23 07:38:31;;;;;;;5.90;3.03;;;6.80;80.90;;;;;;5003915;28;20513;-80
2023/10/23 07:40:58;;;;;;;5.55;3.15;;;6.80;81.00;;;;;;4990968;28;20729;-80
2023/10/23 07:43:26;;;;;;;6.03;3.22;;;6.80;81.10;;;;;;4987986;28;20501;-80
2023/10/23 07:45:55;;;;;;;5.93;3.47;;;6.80;81.20;;;;;;5020637;28;20061;-80
2023/10/23 07:48:24;;;;;;;6.60;3.45;;;6.90;81.30;;;;;;4969668;28;20051;-80
2023/10/23 07:50:51;;;;;;;7.40;4.40;;;6.90;81.40;;;;;;4988278;28;20616;-80
2023/10/23 07:53:18;;;;;;;9.48;5.78;;;6.90;81.50;;;;;;4972454;28;20262;-80
2023/10/23 07:55:45;;;;;;;10.00;6.15;;;6.90;81.50;;;;;;4989126;28;20133;-80
2023/10/23 07:58:12;;;;;;;8.85;5.03;;;7.00;81.90;;;;;;4988540;28;20051;-80
2023/10/23 08:00:39;;;;;;;7.82;4.40;;;7.00;81.90;;;;;;4988651;28;20948;-81
2023/10/23 08:03:08;;;;;;;7.63;4.07;;;7.00;82.00;;;;;;4989246;28;20054;-80
2023/10/23 08:05:36;;;;;;;7.68;4.65;;;7.00;82.10;;;;;;4988747;28;20266;-81
2023/10/23 08:08:04;;;;;;;7.65;4.53;;;7.10;82.20;;;;;;5004600;28;20073;-79
2023/10/23 08:10:31;;;;;;;8.25;5.03;;;7.10;82.40;;;;;;4989135;28;20075;-82
2023/10/23 08:12:58;;;;;;;8.38;5.05;;;7.20;82.50;;;;;;4988921;28;20050;-82
2023/10/23 08:15:26;;;;;;;9.70;5.80;;;7.20;82.90;;;;;;4972943;28;20078;-85
2023/10/23 08:17:53;;;;;;;9.68;5.43;;;7.20;83.40;;;;;;5022279;28;20684;-89
2023/10/23 08:20:24;;;;;;;10.07;6.10;;;7.30;83.70;;;;;;4982810;28;20138;-87
2023/10/23 08:22:52;;;;;;;9.55;6.00;;;7.40;83.70;;;;;;4976403;28;20172;-86
2023/10/23 08:25:20;;;;;;;8.98;5.55;;;7.40;83.60;;;;;;4974285;28;20051;-87
2023/10/23 08:30:30;;;;;;;9.45;5.35;;;7.50;83.70;;;;;;4980815;28;20270;-87
2023/10/23 08:32:57;;;;;;;8.95;5.43;;;7.50;84.00;;;;;;5025287;28;20125;-89
2023/10/23 08:35:27;;;;;;;9.80;5.13;;;7.60;84.30;;;;;;5030789;28;20082;-83
2023/10/23 08:37:55;;;;;;;9.32;5.25;;;7.60;84.40;;;;;;4972056;28;20125;-82
2023/10/23 08:40:22;;;;;;;8.77;5.23;;;7.70;84.50;;;;;;4971615;28;20066;-84
2023/10/23 08:42:50;;;;;;;9.90;6.03;;;7.80;84.70;;;;;;4970625;28;20338;-85
2023/10/23 08:45:17;;;;;;;9.90;5.63;;;7.80;84.80;;;;;;4971341;28;20062;-87
2023/10/23 08:47:46;;;;;;;11.60;5.93;;;7.90;85.10;;;;;;5005155;28;20109;-89
2023/10/23 08:50:13;;;;;;;9.25;5.20;;;8.00;85.20;;;;;;5006053;28;20057;-85
2023/10/23 08:52:45;;;;;;;10.20;6.10;;;8.00;85.40;;;;;;4972249;28;20079;-85
2023/10/23 08:55:16;;;;;;;9.55;5.88;;;8.00;85.50;;;;;;4969144;28;20336;-86
2023/10/23 08:57:51;;;;;;;11.50;6.05;;;8.10;85.70;;;;;;4994996;28;20054;-84
2023/10/23 09:00:19;;;;;;;11.10;6.22;;;8.20;85.80;;;;;;4996365;28;20121;-86
2023/10/23 09:02:46;;;;;;;12.45;6.38;;;8.20;86.00;;;;;;4976753;28;20153;-80
2023/10/23 09:05:13;;;;;;;12.00;6.20;;;8.30;86.10;;;;;;4984283;28;20057;-89
2023/10/23 09:07:42;;;;;;;11.27;6.57;;;8.40;86.20;;;;;;4986818;28;20317;-87
2023/10/23 09:10:10;;;;;;;11.25;6.35;;;8.50;86.30;;;;;;5003866;28;20054;-81
2023/10/23 09:12:39;;;;;;;10.85;6.45;;;8.50;86.40;;;;;;5004168;28;20047;-80
2023/10/23 09:15:14;;;;;;;11.05;6.05;;;8.60;86.50;;;;;;5015715;28;20114;-82
2023/10/23 09:17:42;;;;;;;10.27;6.33;;;8.60;86.60;;;;;;4999594;28;20050;-80
2023/10/23 09:20:27;;;;;;;10.98;6.35;;;8.80;86.80;;;;;;4974476;28;20290;-80
2023/10/23 09:22:56;;;;;;;9.77;5.55;;;8.80;86.90;;;;;;5021122;28;20054;-81
2023/10/23 09:25:24;;;;;;;11.00;6.10;;;8.90;87.00;;;;;;5004843;28;20193;-80
2023/10/23 09:27:52;;;;;;;10.50;6.32;;;9.00;86.90;;;;;;4989506;28;20046;-78
2023/10/23 09:30:22;;;;;;;10.60;6.00;;;9.00;87.20;;;;;;5013869;28;20050;-78
2023/10/23 09:32:53;;;;;;;12.23;6.57;;;9.10;87.20;;;;;;4993945;28;20263;-79
2023/10/23 09:35:21;;;;;;;11.00;6.20;;;9.20;87.30;;;;;;4979392;28;20137;-79
2023/10/23 09:37:50;;;;;;;10.90;6.30;;;9.20;87.40;;;;;;5019420;28;20043;-79
2023/10/23 09:40:18;;;;;;;10.57;6.40;;;9.30;87.50;;;;;;4986545;28;20110;-78
2023/10/23 09:42:49;;;;;;;11.10;7.00;;;9.40;87.60;;;;;;4987275;28;20056;-80
2023/10/23 09:45:16;;;;;;;11.63;6.80;;;9.40;87.60;;;;;;4987458;28;20353;-77
2023/10/23 09:47:46;;;;;;;12.18;6.68;;;9.50;87.60;;;;;;4986055;28;20047;-78
2023/10/23 09:50:13;;;;;;;12.88;6.88;;;9.50;87.70;;;;;;4994915;28;20493;-78
2023/10/23 09:52:41;;;;;;;11.45;6.65;;;9.60;87.70;;;;;;4994890;28;20063;-77
2023/10/23 09:55:09;;;;;;;11.50;6.47;;;9.70;87.80;;;;;;4971656;28;20082;-79
2023/10/23 09:57:39;;;;;;;11.52;6.40;;;9.80;87.90;;;;;;4978625;28;21241;-80
2023/10/23 10:00:13;;;;;;;10.13;6.22;;;9.80;88.00;;;;;;4987300;28;21077;-80
2023/10/23 10:02:44;;;;;;;11.35;6.63;;;9.90;88.00;;;;;;5014008;28;20131;-81
2023/10/23 10:05:14;;;;;;;11.90;6.45;;;10.00;88.00;;;;;;4986371;28;20154;-80
2023/10/23 10:07:50;;;;;;;11.20;6.70;;;10.00;88.20;;;;;;4970188;28;20708;-81
2023/10/23 10:10:18;;;;;;;10.60;6.30;;;10.10;88.00;;;;;;4987186;28;20312;-82
2023/10/23 10:12:47;;;;;;;11.95;6.60;;;10.20;88.10;;;;;;5019602;28;20053;-80
2023/10/23 10:15:15;;;;;;;11.32;6.70;;;10.20;88.10;;;;;;4987167;28;20565;-80
2023/10/23 10:17:44;;;;;;;12.23;7.00;;;10.30;88.00;;;;;;4990391;28;20047;-79
2023/10/23 10:20:12;;;;;;;12.33;7.83;;;10.30;88.00;;;;;;4973941;28;20054;-79
2023/10/23 10:22:41;;;;;;;12.35;7.38;;;10.30;87.90;;;;;;4973684;28;20855;-80
2023/10/23 10:25:11;;;;;;;12.48;7.05;;;10.40;87.90;;;;;;4988291;28;20146;-80
2023/10/23 10:27:39;;;;;;;13.57;7.60;;;10.40;87.90;;;;;;4987803;28;20055;-80
2023/10/23 10:30:41;;;;;;;13.27;8.00;;;10.50;87.90;;;;;;4979555;28;20134;-80
2023/10/23 10:33:10;;;;;;;12.10;7.07;;;10.50;87.80;;;;;;5005180;28;20177;-81
2023/10/23 10:35:37;;;;;;;13.40;7.68;;;10.50;87.70;;;;;;4973586;28;20349;-80
2023/10/23 10:38:04;;;;;;;14.45;7.78;;;10.60;87.70;;;;;;4990416;28;20081;-79
2023/10/23 10:40:56;;;;;;;13.50;7.78;;;10.60;87.70;;;;;;4988345;28;20626;-83
2023/10/23 10:43:25;;;;;;;14.43;8.05;;;10.60;87.70;;;;;;4988754;28;20058;-82
2023/10/23 10:45:55;;;;;;;16.87;8.47;;;10.60;87.60;;;;;;4972717;28;20588;-82
2023/10/23 10:48:24;;;;;;;18.38;9.50;;;10.70;87.70;;;;;;4988964;28;20362;-80
2023/10/23 10:50:53;;;;;;;17.40;9.45;;;10.70;87.50;;;;;;4988636;28;20067;-82
2023/10/23 10:53:24;;;;;;;17.77;9.82;;;10.60;87.40;;;;;;5016157;28;20054;-84
2023/10/23 10:55:51;;;;;;;17.88;9.93;;;10.70;87.50;;;;;;4990514;28;20142;-83
2023/10/23 10:58:20;;;;;;;19.77;10.57;;;10.70;87.50;;;;;;5023341;28;20065;-83
2023/10/23 11:00:47;;;;;;;18.67;9.88;;;10.70;87.50;;;;;;5008855;28;20286;-81
2023/10/23 11:03:15;;;;;;;20.13;9.82;;;10.70;87.50;;;;;;5022963;28;20134;-85
2023/10/23 11:05:46;;;;;;;21.70;10.55;;;10.70;87.50;;;;;;5013635;28;20937;-84
2023/10/23 11:08:14;;;;;;;21.38;10.52;;;10.70;87.50;;;;;;5015440;28;20075;-84
2023/10/23 11:10:42;;;;;;;21.17;10.73;;;10.80;87.50;;;;;;5000326;28;20051;-81
2023/10/23 11:13:14;;;;;;;24.20;11.07;;;10.80;87.30;;;;;;5012384;28;20370;-82
2023/10/23 11:15:41;;;;;;;20.50;10.27;;;10.80;87.30;;;;;;5006657;28;20530;-83
2023/10/23 11:18:08;;;;;;;22.80;11.50;;;10.80;87.30;;;;;;4986818;28;20057;-83
2023/10/23 11:20:37;;;;;;;21.35;10.50;;;10.80;87.30;;;;;;4987114;28;20054;-80
2023/10/23 11:23:05;;;;;;;25.13;11.70;;;10.80;87.40;;;;;;4988223;28;20050;-82
2023/10/23 11:25:32;;;;;;;24.98;12.73;;;10.90;87.30;;;;;;4988457;28;20263;-84
2023/10/23 11:27:59;;;;;;;26.95;12.75;;;10.90;87.30;;;;;;4973586;28;20050;-81
2023/10/23 11:30:28;;;;;;;23.73;11.38;;;10.90;87.40;;;;;;4988692;28;20062;-84
2023/10/23 11:32:56;;;;;;;26.73;13.10;;;10.90;87.40;;;;;;4989726;28;20500;-79
2023/10/23 11:35:31;;;;;;;27.50;13.30;;;10.90;87.40;;;;;;4973332;28;20089;-86
2023/10/23 11:38:00;;;;;;;28.35;13.38;;;11.00;87.40;;;;;;4989568;28;20769;-80
2023/10/23 11:40:27;;;;;;;29.25;13.82;;;11.00;87.20;;;;;;4993349;28;20058;-86
2023/10/23 11:42:55;;;;;;;26.67;12.70;;;11.00;87.20;;;;;;5012912;28;21010;-86
2023/10/23 11:45:23;;;;;;;23.27;11.35;;;11.00;87.30;;;;;;4998953;28;20057;-82
2023/10/23 11:47:51;;;;;;;24.47;12.03;;;11.00;87.20;;;;;;4973017;28;20685;-83
2023/10/23 11:50:19;;;;;;;23.77;11.75;;;11.10;87.30;;;;;;4993448;28;20282;-81
2023/10/23 11:52:48;;;;;;;26.75;12.98;;;11.10;87.20;;;;;;4972903;28;20065;-81
2023/10/23 11:55:18;;;;;;;26.60;12.50;;;11.10;87.20;;;;;;4989112;28;20159;-82
2023/10/23 11:57:47;;;;;;;24.83;11.95;;;11.10;87.20;;;;;;4988975;28;20051;-81
2023/10/23 12:00:15;;;;;;;22.20;11.20;;;11.10;87.30;;;;;;4978035;28;20532;-82
2023/10/23 12:02:44;;;;;;;24.00;11.68;;;11.20;87.30;;;;;;5026681;28;20721;-81
2023/10/23 12:05:13;;;;;;;21.85;10.85;;;11.20;87.20;;;;;;5007804;28;20081;-82
2023/10/23 12:07:41;;;;;;;21.98;10.93;;;11.20;87.20;;;;;;5007231;28;20058;-80
2023/10/23 12:10:10;;;;;;;22.25;10.10;;;11.30;87.20;;;;;;4991455;28;20077;-79
2023/10/23 12:12:39;;;;;;;21.63;10.80;;;11.30;87.20;;;;;;5004987;28;20053;-81
2023/10/23 12:15:08;;;;;;;21.77;11.23;;;11.30;87.20;;;;;;5007033;28;20254;-81
2023/10/23 12:17:35;;;;;;;23.48;11.07;;;11.40;87.10;;;;;;4978715;28;20067;-81
2023/10/23 12:20:07;;;;;;;23.30;11.73;;;11.40;87.10;;;;;;5006852;28;20046;-81
2023/10/23 12:22:35;;;;;;;25.60;12.48;;;11.40;87.00;;;;;;5005547;28;20054;-82
2023/10/23 12:25:04;;;;;;;23.60;11.90;;;11.40;86.90;;;;;;5005852;28;20046;-82
2023/10/23 12:27:31;;;;;;;27.02;12.57;;;11.50;86.90;;;;;;5005585;28;20411;-82
2023/10/23 12:30:01;;;;;;;25.27;12.77;;;11.50;86.80;;;;;;4991072;28;20051;-82
2023/10/23 12:32:28;;;;;;;23.50;11.00;;;11.50;86.70;;;;;;5021348;28;20063;-81
2023/10/23 12:34:57;;;;;;;22.35;11.18;;;11.50;86.60;;;;;;5013966;28;20061;-82
2023/10/23 12:37:26;;;;;;;22.53;10.80;;;11.50;86.60;;;;;;4987590;28;20046;-81
2023/10/23 12:39:54;;;;;;;22.30;11.55;;;11.50;86.60;;;;;;5004866;28;20281;-82
2023/10/23 12:42:21;;;;;;;22.73;11.80;;;11.60;86.60;;;;;;5019780;28;20065;-82
2023/10/23 12:44:48;;;;;;;22.50;11.52;;;11.60;86.50;;;;;;5003646;28;20126;-82
2023/10/23 12:47:17;;;;;;;21.77;11.07;;;11.70;86.50;;;;;;5002041;28;20544;-82
2023/10/23 12:49:45;;;;;;;23.20;11.73;;;11.70;86.50;;;;;;4987452;28;20079;-82
2023/10/23 12:52:12;;;;;;;22.58;11.60;;;11.70;86.50;;;;;;5020386;28;20309;-82
2023/10/23 12:54:40;;;;;;;23.05;11.63;;;11.70;86.40;;;;;;4987611;28;20066;-82
2023/10/23 12:57:07;;;;;;;22.35;11.68;;;11.70;86.30;;;;;;4972287;28;20082;-82